Stuart, IA

9:11 AM CDT on September 02, 2015 (GMT -0500)
WCV Middle School | | Change Station
CLOSE
Current Station
Personal Weather Station
Location: Redfield, IA
Elevation: 968 ft
Nearby Weather Stations

Elev 968 ft 41.59 °N, 94.19 °W | Updated 3 minutes ago

Clear
Clear
72.7 °F
Feels Like 71 °F
N
9.0
Wind Variable Wind from SE
Gusts 12.0 mph

Today
High -- | Low -- °F
--% Chance of Precip.
Yesterday
High -- | Low -- °F
Precip. -- in
6:44 AM 7:49 PM
Waning Gibbous, 80% visible
Pressure 29.96 in
Visibility 10.0 miles
Clouds Clear
Heat Index 71 °F
Dew Point 69 °F
Humidity 89%
Rainfall 0.46 in
Snow Depth Not available.
UV 1.2 out of 12
Pollen 11.10 out of 12
Air Quality Not available.
Flu Activity Not available.
METAR KPRO 021355Z AUTO 16011G17KT 10SM CLR 23/21 A2996 RMK AO2 T02310207
Pressure 29.96 in
Visibility 10.0 miles
Clouds Clear
Heat Index 71 °F
Dew Point 69 °F
Humidity 89%
Rainfall 0.46 in
Snow Depth Not available.
UV 1.2 out of 12
Pollen 11.10 out of 12
Air Quality Not available.
Flu Activity Not available.
METAR KPRO 021355Z AUTO 16011G17KT 10SM CLR 23/21 A2996 RMK AO2 T02310207

10-Day Weather Forecast

×

Almanac

Astronomy

Sep. 02, 2015 Rise Set
Actual Time
Civil Twilight
Nautical Twilight
Astronomical Twilight
Moon
Length of Visible Light
Length of Day
Tomorrow will be .
, % of the Moon is Illuminated

Today's Extremes

State Highs State Lows

Community

WunderPhotos

Upload Photos

1,851,758 photos uploaded!

WunderBlogs® & News

Nearby

Air Quality

  Air Quality AQ Index Pollutant
Not available.

Snow Depth

Station Depth Elevation

Earthquake Activity

City Distance Mag. Time & Date
Minimum magnitude displayed is 2.5.

Coastal Water Temperatures

Place Temperature

Stations

Nearby Weather Stations

Station Location Temp. Windchill Dew Point Humidity Wind Precip. Elev Updated Type